createdAt,value
2019-06-26T00:01:15.648Z,28.30
2019-06-26T00:03:45.214Z,28.40
2019-06-26T00:06:14.835Z,28.40
2019-06-26T00:08:44.434Z,28.30
2019-06-26T00:11:14.035Z,28.10
2019-06-26T00:13:54.738Z,28.10
2019-06-26T00:16:24.714Z,28.10
2019-06-26T00:18:54.292Z,28.10
2019-06-26T00:21:31.873Z,28.00
2019-06-26T00:24:01.424Z,28.00
2019-06-26T00:26:31.440Z,27.90
2019-06-26T00:29:01.027Z,27.90
2019-06-26T00:31:31.015Z,27.80
2019-06-26T00:34:00.816Z,27.80
2019-06-26T00:36:44.584Z,27.80
2019-06-26T00:39:14.544Z,27.70
2019-06-26T00:41:44.106Z,27.70
2019-06-26T00:44:14.836Z,27.60
2019-06-26T00:46:44.644Z,27.60
2019-06-26T00:49:14.430Z,27.60
2019-06-26T00:51:44.865Z,27.60
2019-06-26T00:54:14.350Z,27.50
2019-06-26T00:56:43.959Z,27.50
2019-06-26T00:59:13.609Z,27.50
2019-06-26T01:01:45.743Z,27.50
2019-06-26T01:04:19.468Z,27.30
2019-06-26T01:06:49.106Z,27.20
2019-06-26T01:09:19.289Z,27.20
2019-06-26T01:11:48.883Z,27.10
2019-06-26T01:14:36.787Z,27.10
2019-06-26T01:17:06.693Z,27.00
2019-06-26T01:19:36.247Z,27.00
2019-06-26T01:22:05.919Z,26.90
2019-06-26T01:24:35.730Z,26.90
2019-06-26T01:27:05.609Z,26.90
2019-06-26T01:29:37.387Z,26.80
2019-06-26T01:32:07.119Z,26.80
2019-06-26T01:34:37.094Z,26.80
2019-06-26T01:37:41.154Z,26.80
2019-06-26T01:40:10.984Z,26.70
2019-06-26T01:42:40.573Z,26.80
2019-06-26T01:45:10.456Z,26.60
2019-06-26T01:47:40.109Z,26.60
2019-06-26T01:50:10.698Z,26.50
2019-06-26T01:52:40.234Z,26.50
2019-06-26T01:55:10.207Z,26.40
2019-06-26T01:57:39.853Z,26.30
2019-06-26T02:00:09.856Z,26.40
2019-06-26T02:02:39.456Z,26.20
2019-06-26T02:05:09.223Z,26.30
2019-06-26T02:07:38.799Z,26.20
2019-06-26T02:10:08.872Z,26.00
2019-06-26T02:12:38.537Z,26.00
2019-06-26T02:15:08.795Z,25.90
2019-06-26T02:17:38.407Z,25.80
2019-06-26T02:20:08.245Z,25.70
2019-06-26T02:22:37.857Z,25.50
2019-06-26T02:25:07.513Z,25.70
2019-06-26T02:27:37.105Z,25.70
2019-06-26T02:30:10.809Z,25.50
2019-06-26T02:32:40.408Z,25.70
2019-06-26T02:35:10.744Z,25.60
2019-06-26T02:37:40.522Z,25.50
2019-06-26T02:40:10.650Z,25.40
2019-06-26T02:42:40.457Z,25.10
2019-06-26T02:45:10.439Z,25.40
2019-06-26T02:47:40.135Z,25.50
2019-06-26T02:50:10.545Z,25.50
2019-06-26T02:52:40.491Z,25.60
2019-06-26T02:55:11.786Z,25.60
2019-06-26T02:57:41.348Z,25.00
2019-06-26T03:00:10.980Z,25.10
2019-06-26T03:02:40.609Z,25.30
2019-06-26T03:05:10.568Z,25.50
2019-06-26T03:07:40.093Z,25.50
2019-06-26T03:10:34.011Z,25.40
2019-06-26T03:13:03.601Z,25.20
2019-06-26T03:15:33.498Z,25.10
2019-06-26T03:18:03.401Z,25.30
2019-06-26T03:20:36.381Z,25.20
2019-06-26T03:23:06.873Z,25.30
2019-06-26T03:25:36.522Z,25.30
2019-06-26T03:28:06.065Z,25.30
2019-06-26T03:30:35.640Z,25.30
2019-06-26T03:33:05.849Z,25.20
2019-06-26T03:35:40.714Z,25.10
2019-06-26T03:38:10.667Z,25.10
2019-06-26T03:40:42.467Z,25.20
2019-06-26T03:43:12.367Z,25.10
2019-06-26T03:45:41.999Z,25.20
2019-06-26T03:48:11.633Z,25.30
2019-06-26T03:50:41.217Z,25.20
2019-06-26T03:53:18.768Z,25.20
2019-06-26T03:55:48.342Z,25.30
2019-06-26T03:58:17.861Z,25.30
2019-06-26T04:00:47.408Z,25.30
2019-06-26T04:03:18.113Z,25.30
2019-06-26T04:05:47.611Z,25.30
2019-06-26T04:08:17.126Z,25.30
2019-06-26T04:10:46.683Z,25.30
2019-06-26T04:13:16.363Z,25.20
2019-06-26T04:15:45.812Z,25.20
2019-06-26T04:18:38.758Z,25.30
2019-06-26T04:21:08.214Z,25.30
2019-06-26T04:23:38.093Z,25.30
2019-06-26T04:26:07.748Z,25.20
2019-06-26T04:28:37.268Z,24.60
2019-06-26T04:31:06.827Z,25.00
2019-06-26T04:33:50.935Z,25.20
2019-06-26T04:36:20.657Z,25.10
2019-06-26T04:38:50.296Z,25.20
2019-06-26T04:41:37.857Z,25.30
2019-06-26T04:44:07.331Z,24.60
2019-06-26T04:46:36.975Z,25.20
2019-06-26T04:49:06.530Z,25.10
2019-06-26T04:51:36.719Z,25.20
2019-06-26T04:54:06.222Z,24.90
2019-06-26T04:56:41.614Z,24.90
2019-06-26T04:59:23.199Z,25.40
2019-06-26T05:01:52.748Z,25.30
2019-06-26T05:04:22.285Z,25.40
2019-06-26T05:06:51.833Z,24.70
2019-06-26T05:09:21.947Z,25.20
2019-06-26T05:11:51.686Z,25.60
2019-06-26T05:14:27.324Z,25.60
2019-06-26T05:16:56.851Z,25.30
2019-06-26T05:19:26.508Z,25.30
2019-06-26T05:21:57.067Z,25.70
2019-06-26T05:24:27.099Z,25.60
2019-06-26T05:26:56.696Z,25.70
2019-06-26T05:29:26.530Z,25.40
2019-06-26T05:31:58.379Z,26.40
2019-06-26T05:34:28.400Z,26.00
2019-06-26T05:36:57.930Z,25.10
2019-06-26T05:39:30.997Z,25.60
2019-06-26T05:42:00.985Z,26.60
2019-06-26T05:44:31.566Z,27.10
2019-06-26T05:47:01.566Z,25.70
2019-06-26T05:49:34.971Z,25.00
2019-06-26T05:52:18.277Z,26.30
2019-06-26T05:54:49.608Z,26.60
2019-06-26T05:57:19.322Z,27.00
2019-06-26T05:59:55.275Z,26.80
2019-06-26T06:03:30.683Z,26.60
2019-06-26T06:06:03.396Z,25.50
2019-06-26T06:08:34.067Z,25.80
2019-06-26T06:11:03.644Z,26.40
2019-06-26T06:13:33.251Z,25.70
2019-06-26T06:16:06.229Z,25.30
2019-06-26T06:18:34.019Z,25.90
2019-06-26T06:21:03.755Z,26.20
2019-06-26T06:23:33.397Z,25.90
2019-06-26T06:26:02.945Z,26.60
2019-06-26T06:28:32.688Z,26.50
2019-06-26T06:31:02.395Z,27.10
2019-06-26T06:33:32.085Z,25.30
2019-06-26T06:36:02.751Z,27.20
2019-06-26T06:38:32.862Z,26.60
2019-06-26T06:41:03.688Z,25.90
2019-06-26T06:43:35.416Z,26.80
2019-06-26T06:46:05.059Z,26.40
2019-06-26T06:48:34.700Z,27.00
2019-06-26T06:51:04.589Z,26.00
2019-06-26T06:53:34.247Z,27.00
2019-06-26T06:56:03.787Z,26.40
2019-06-26T06:58:34.886Z,29.00
2019-06-26T07:01:04.437Z,29.70
2019-06-26T07:03:34.195Z,27.10
2019-06-26T07:06:03.752Z,27.20
2019-06-26T07:08:33.417Z,26.70
2019-06-26T07:11:03.070Z,26.50
2019-06-26T07:13:32.540Z,27.90
2019-06-26T07:16:02.464Z,29.60
2019-06-26T07:18:33.181Z,30.70
2019-06-26T07:21:03.014Z,28.40
2019-06-26T07:23:35.294Z,30.60
2019-06-26T07:26:05.153Z,28.40
2019-06-26T07:28:34.937Z,28.50
2019-06-26T07:31:04.636Z,29.70
2019-06-26T07:33:34.415Z,27.80
2019-06-26T07:36:04.105Z,29.20
2019-06-26T07:38:33.663Z,28.60
2019-06-26T07:41:03.489Z,29.70
2019-06-26T07:43:33.268Z,28.40
2019-06-26T07:46:02.928Z,30.90
2019-06-26T07:48:45.054Z,27.30
2019-06-26T07:51:14.493Z,27.50
2019-06-26T07:53:44.066Z,28.00
2019-06-26T07:56:13.670Z,30.20
2019-06-26T07:58:44.942Z,32.00
2019-06-26T08:01:14.466Z,29.20
2019-06-26T08:03:43.982Z,30.10
2019-06-26T08:06:13.640Z,30.10
2019-06-26T08:08:43.212Z,26.90
2019-06-26T08:11:13.223Z,32.50
2019-06-26T08:13:42.860Z,31.90
2019-06-26T08:16:12.499Z,32.40
2019-06-26T08:18:42.567Z,30.80
2019-06-26T08:21:13.076Z,29.40
2019-06-26T08:23:42.846Z,28.60
2019-06-26T08:26:12.866Z,28.00
2019-06-26T08:28:42.534Z,31.70
2019-06-26T08:31:12.291Z,29.80
2019-06-26T08:33:41.775Z,32.10
2019-06-26T08:36:13.749Z,33.60
2019-06-26T08:38:43.287Z,31.80
2019-06-26T08:41:12.852Z,30.20
2019-06-26T08:43:42.398Z,31.60
2019-06-26T08:46:14.232Z,32.30
2019-06-26T08:48:44.567Z,30.20
2019-06-26T08:51:14.069Z,31.20
2019-06-26T08:53:52.619Z,31.00
2019-06-26T08:56:22.147Z,29.50
2019-06-26T08:58:51.989Z,30.30
2019-06-26T09:01:21.611Z,29.20
2019-06-26T09:03:52.867Z,33.00
2019-06-26T09:06:22.521Z,31.50
2019-06-26T09:08:53.249Z,32.10
2019-06-26T09:11:22.792Z,29.90
2019-06-26T09:13:52.792Z,32.00
2019-06-26T09:16:22.394Z,30.30
2019-06-26T09:18:53.013Z,30.20
2019-06-26T09:21:22.551Z,28.10
2019-06-26T09:23:54.401Z,29.90
2019-06-26T09:26:24.297Z,29.70
2019-06-26T09:28:54.048Z,29.70
2019-06-26T09:31:23.683Z,29.50
2019-06-26T09:33:53.388Z,28.20
2019-06-26T09:36:23.471Z,31.60
2019-06-26T09:38:57.879Z,31.10
2019-06-26T09:41:26.524Z,30.10
2019-06-26T09:43:56.080Z,31.90
2019-06-26T09:46:25.734Z,30.50
2019-06-26T09:48:58.345Z,29.60
2019-06-26T09:51:28.725Z,29.30
2019-06-26T09:53:58.460Z,27.50
2019-06-26T09:56:27.870Z,29.10
2019-06-26T09:58:57.491Z,30.50
2019-06-26T10:01:27.063Z,34.20
2019-06-26T10:03:56.711Z,29.60
2019-06-26T10:06:26.377Z,30.10
2019-06-26T10:08:56.168Z,32.00
2019-06-26T10:11:26.151Z,31.20
2019-06-26T10:13:55.913Z,29.90
2019-06-26T10:16:25.545Z,30.50
2019-06-26T10:19:09.035Z,29.10
2019-06-26T10:21:26.184Z,30.10
2019-06-26T10:23:56.200Z,28.50
2019-06-26T10:26:25.991Z,30.80
2019-06-26T10:28:55.863Z,29.90
2019-06-26T10:31:25.364Z,28.10
2019-06-26T10:33:57.991Z,27.90
2019-06-26T10:36:27.912Z,28.20
2019-06-26T10:38:57.483Z,30.60
2019-06-26T10:41:26.973Z,31.20
2019-06-26T10:43:56.680Z,29.00
2019-06-26T10:46:26.197Z,30.10
2019-06-26T10:48:55.914Z,29.30
2019-06-26T10:51:25.349Z,28.20
2019-06-26T10:53:55.421Z,28.50
2019-06-26T10:56:28.469Z,28.10
2019-06-26T10:58:56.392Z,28.30
2019-06-26T11:01:48.340Z,29.20
2019-06-26T11:04:17.873Z,31.00
2019-06-26T11:06:47.352Z,27.90
2019-06-26T11:09:16.955Z,28.70
2019-06-26T11:11:46.626Z,28.40
2019-06-26T11:14:16.782Z,27.20
2019-06-26T11:20:16.140Z,29.50
2019-06-26T11:22:46.807Z,30.90
2019-06-26T11:25:18.009Z,29.60
2019-06-26T11:28:24.207Z,30.30
2019-06-26T11:30:53.826Z,32.00
2019-06-26T11:33:44.958Z,29.50
2019-06-26T11:36:16.992Z,27.50
2019-06-26T11:38:46.519Z,30.90
2019-06-26T11:41:15.989Z,28.10
2019-06-26T11:43:45.459Z,28.30
2019-06-26T11:46:15.106Z,26.90
2019-06-26T11:48:52.247Z,27.80
2019-06-26T11:51:21.954Z,28.90
2019-06-26T11:53:51.527Z,28.90
2019-06-26T11:56:21.427Z,26.80
2019-06-26T11:58:51.017Z,26.30
2019-06-26T12:01:20.668Z,26.40
2019-06-26T12:03:51.852Z,27.20
2019-06-26T12:06:21.420Z,26.90
2019-06-26T12:09:01.304Z,29.80
2019-06-26T12:11:31.027Z,28.90
2019-06-26T12:14:00.641Z,28.60
2019-06-26T12:16:32.386Z,26.80
2019-06-26T12:19:01.974Z,28.40
2019-06-26T12:21:31.528Z,27.70
2019-06-26T12:24:01.459Z,26.10
2019-06-26T12:26:31.364Z,28.60
2019-06-26T12:29:28.182Z,28.60
2019-06-26T12:31:57.750Z,26.40
2019-06-26T12:34:27.349Z,26.00
2019-06-26T12:36:57.969Z,29.90
2019-06-26T12:39:27.731Z,27.10
2019-06-26T12:41:57.427Z,26.90
2019-06-26T12:44:26.998Z,29.40
2019-06-26T12:46:56.574Z,28.40
2019-06-26T12:49:26.161Z,25.60
2019-06-26T12:52:00.882Z,26.30
2019-06-26T12:54:30.407Z,27.60
2019-06-26T12:56:59.986Z,27.30
2019-06-26T12:59:29.587Z,28.20
2019-06-26T13:02:01.603Z,25.50
2019-06-26T13:04:31.215Z,26.40
2019-06-26T13:07:01.230Z,26.40
2019-06-26T13:09:30.873Z,27.50
2019-06-26T13:12:18.660Z,26.90
2019-06-26T13:14:48.815Z,29.40
2019-06-26T13:17:18.365Z,25.50
2019-06-26T13:20:03.493Z,27.10
2019-06-26T13:22:33.194Z,28.50
2019-06-26T13:25:02.843Z,26.70
2019-06-26T13:27:32.629Z,26.70
2019-06-26T13:30:13.377Z,24.90
2019-06-26T13:32:42.915Z,26.70
2019-06-26T13:35:12.812Z,27.20
2019-06-26T13:37:42.514Z,28.10
2019-06-26T13:40:14.760Z,24.60
2019-06-26T13:42:44.322Z,25.40
2019-06-26T13:45:13.936Z,30.40
2019-06-26T13:47:43.510Z,27.80
2019-06-26T13:50:15.463Z,25.00
2019-06-26T13:52:45.216Z,27.50
2019-06-26T13:55:15.045Z,28.90
2019-06-26T13:57:44.548Z,25.50
2019-06-26T14:00:14.762Z,25.60
2019-06-26T14:02:44.259Z,23.60
2019-06-26T14:05:14.322Z,28.40
2019-06-26T14:07:43.849Z,26.70
2019-06-26T14:10:13.861Z,25.70
2019-06-26T14:12:44.726Z,25.00
2019-06-26T14:15:14.724Z,24.00
2019-06-26T14:17:44.358Z,23.80
2019-06-26T14:20:14.459Z,24.90
2019-06-26T14:22:43.961Z,26.20
2019-06-26T14:25:17.877Z,26.50
2019-06-26T14:27:47.469Z,28.00
2019-06-26T14:30:17.623Z,27.20
2019-06-26T14:32:47.513Z,26.30
2019-06-26T14:35:17.377Z,28.00
2019-06-26T14:37:47.002Z,25.60
2019-06-26T14:40:17.122Z,25.50
2019-06-26T14:42:46.731Z,27.40
2019-06-26T14:45:16.501Z,24.70
2019-06-26T14:47:47.271Z,25.80
2019-06-26T14:50:17.066Z,25.90
2019-06-26T14:52:46.669Z,24.60
2019-06-26T14:55:16.221Z,24.30
2019-06-26T14:57:51.886Z,25.30
2019-06-26T15:00:22.259Z,23.50
2019-06-26T15:02:56.182Z,25.70
2019-06-26T15:05:25.745Z,25.70
2019-06-26T15:07:55.582Z,26.60
2019-06-26T15:10:52.501Z,26.10
2019-06-26T15:13:22.046Z,24.90
2019-06-26T15:15:54.650Z,25.90
2019-06-26T15:18:23.276Z,25.10
2019-06-26T15:20:53.196Z,22.70
2019-06-26T15:23:22.797Z,26.80
2019-06-26T15:25:52.534Z,25.80
2019-06-26T15:28:24.602Z,27.50
2019-06-26T15:30:54.224Z,27.90
2019-06-26T15:33:25.392Z,26.50
2019-06-26T15:35:54.952Z,25.70
2019-06-26T15:38:24.559Z,23.90
2019-06-26T15:40:54.272Z,26.40
2019-06-26T15:43:24.083Z,24.00
2019-06-26T15:45:55.858Z,24.00
2019-06-26T15:48:26.269Z,27.20
2019-06-26T15:50:57.777Z,22.90
2019-06-26T15:53:31.603Z,21.60
2019-06-26T15:56:01.589Z,23.00
2019-06-26T15:58:36.439Z,24.60
2019-06-26T16:01:07.142Z,27.60
2019-06-26T16:03:40.290Z,26.80
2019-06-26T16:06:10.372Z,23.80
2019-06-26T16:08:42.078Z,24.70
2019-06-26T16:11:11.876Z,25.80
2019-06-26T16:13:41.458Z,23.80
2019-06-26T16:16:11.042Z,24.10
2019-06-26T16:18:45.689Z,23.70
2019-06-26T16:21:29.048Z,24.00
2019-06-26T16:23:59.215Z,24.30
2019-06-26T16:26:28.972Z,21.60
2019-06-26T16:28:59.631Z,24.90
2019-06-26T16:31:29.196Z,21.20
2019-06-26T16:34:09.245Z,22.90
2019-06-26T16:36:38.854Z,22.60
2019-06-26T16:39:15.720Z,22.90
2019-06-26T16:41:48.888Z,20.70
2019-06-26T16:44:17.640Z,24.20
2019-06-26T16:46:49.950Z,23.30
2019-06-26T16:49:20.433Z,22.20
2019-06-26T16:51:51.106Z,23.70
2019-06-26T16:54:20.823Z,24.80
2019-06-26T16:56:52.633Z,22.10
2019-06-26T16:59:22.551Z,22.10
2019-06-26T17:03:04.554Z,23.60
2019-06-26T17:05:34.396Z,24.80
2019-06-26T17:08:05.677Z,22.10
2019-06-26T17:10:35.509Z,22.80
2019-06-26T17:13:05.903Z,22.40
2019-06-26T17:15:44.552Z,23.40
2019-06-26T17:18:14.520Z,22.20
2019-06-26T17:20:45.309Z,22.40
2019-06-26T17:23:15.434Z,23.00
2019-06-26T17:25:45.186Z,22.00
2019-06-26T17:28:14.819Z,20.80
2019-06-26T17:30:44.903Z,20.20
2019-06-26T17:33:28.499Z,22.20
2019-06-26T17:36:05.591Z,22.60
2019-06-26T17:38:47.508Z,19.70
2019-06-26T17:41:17.035Z,22.70
2019-06-26T17:43:47.261Z,25.70
2019-06-26T17:46:24.063Z,25.40
2019-06-26T17:49:01.711Z,20.70
2019-06-26T17:51:39.747Z,20.50
2019-06-26T17:54:09.390Z,20.00
2019-06-26T17:56:44.502Z,20.70
2019-06-26T17:59:14.954Z,20.20
2019-06-26T18:01:44.608Z,20.20
2019-06-26T18:04:15.133Z,19.30
2019-06-26T18:06:44.725Z,19.70
2019-06-26T18:09:15.446Z,20.80
2019-06-26T18:11:45.122Z,19.80
2019-06-26T18:14:15.053Z,22.60
2019-06-26T18:16:45.766Z,19.50
2019-06-26T18:19:27.932Z,19.50
2019-06-26T18:21:58.434Z,20.40
2019-06-26T18:24:34.415Z,19.30
2019-06-26T18:27:05.085Z,20.20
2019-06-26T18:29:34.801Z,20.60
2019-06-26T18:32:04.999Z,20.50
2019-06-26T18:34:36.134Z,18.80
2019-06-26T18:37:06.842Z,19.20
2019-06-26T18:39:38.272Z,19.10
2019-06-26T18:42:10.347Z,20.00
2019-06-26T18:44:42.331Z,19.70
2019-06-26T18:47:13.389Z,19.50
2019-06-26T18:49:43.575Z,18.40
2019-06-26T18:52:13.716Z,19.00
2019-06-26T18:54:44.452Z,19.60
2019-06-26T18:57:37.225Z,19.10
2019-06-26T19:00:09.930Z,19.40
2019-06-26T19:02:39.747Z,19.70
2019-06-26T19:05:11.160Z,19.10
2019-06-26T19:07:49.663Z,18.20
2019-06-26T19:10:19.847Z,17.90
2019-06-26T19:12:49.702Z,19.20
2019-06-26T19:15:20.519Z,17.90
2019-06-26T19:17:50.561Z,18.80
2019-06-26T19:20:26.603Z,17.90
2019-06-26T19:22:56.185Z,17.50
2019-06-26T19:25:25.998Z,17.60
2019-06-26T19:27:55.585Z,18.20
2019-06-26T19:30:25.565Z,18.20
2019-06-26T19:33:02.489Z,19.20
2019-06-26T19:35:32.851Z,18.40
2019-06-26T19:38:02.578Z,18.30
2019-06-26T19:40:32.712Z,18.60
2019-06-26T19:43:02.510Z,18.50
2019-06-26T19:45:32.541Z,18.50
2019-06-26T19:48:02.513Z,18.70
2019-06-26T19:50:32.899Z,18.40
2019-06-26T19:53:02.608Z,17.60
2019-06-26T19:55:34.283Z,17.60
2019-06-26T19:58:03.986Z,17.60
2019-06-26T20:00:35.204Z,17.30
2019-06-26T20:03:04.903Z,17.20
2019-06-26T20:05:35.801Z,17.10
2019-06-26T20:08:09.864Z,17.70
2019-06-26T20:10:39.642Z,17.40
2019-06-26T20:13:09.497Z,17.20
2019-06-26T20:15:45.327Z,18.10
2019-06-26T20:18:15.144Z,17.40
2019-06-26T20:20:45.713Z,16.20
2019-06-26T20:23:19.010Z,16.60
2019-06-26T20:25:49.022Z,17.10
2019-06-26T20:28:19.643Z,16.90
2019-06-26T20:30:49.525Z,16.90
2019-06-26T20:33:19.227Z,16.90
2019-06-26T20:35:53.986Z,17.20
2019-06-26T20:38:24.520Z,17.10
2019-06-26T20:40:54.711Z,17.10
2019-06-26T20:43:34.768Z,16.80
2019-06-26T20:46:07.197Z,16.90
2019-06-26T20:48:43.519Z,17.40
2019-06-26T20:51:13.291Z,16.90
2019-06-26T20:53:42.964Z,16.80
2019-06-26T20:56:12.612Z,17.50
2019-06-26T20:58:53.701Z,16.70
2019-06-26T21:01:23.270Z,18.00
2019-06-26T21:03:52.712Z,18.60
2019-06-26T21:06:22.654Z,17.30
2019-06-26T21:08:52.376Z,17.50
2019-06-26T21:11:22.019Z,17.50
2019-06-26T21:13:53.060Z,16.70
2019-06-26T21:16:24.014Z,17.00
2019-06-26T21:18:53.458Z,16.80
2019-06-26T21:21:23.088Z,16.40
2019-06-26T21:24:09.153Z,16.50
2019-06-26T21:26:46.522Z,16.50
2019-06-26T21:29:20.321Z,17.00
2019-06-26T21:31:56.985Z,16.80
2019-06-26T21:34:26.902Z,16.50
2019-06-26T21:36:57.107Z,16.50
2019-06-26T21:39:26.740Z,16.00
2019-06-26T21:42:06.663Z,15.90
2019-06-26T21:44:54.658Z,16.90
2019-06-26T21:47:24.462Z,17.50
2019-06-26T21:49:54.245Z,16.80
2019-06-26T21:52:23.913Z,16.90
2019-06-26T21:54:55.584Z,16.10
2019-06-26T21:57:26.870Z,16.40
2019-06-26T21:59:58.161Z,16.50
2019-06-26T22:02:27.815Z,16.70
2019-06-26T22:04:57.491Z,16.80
2019-06-26T22:07:27.657Z,16.60
2019-06-26T22:09:57.451Z,16.50
2019-06-26T22:12:30.606Z,16.10
2019-06-26T22:15:00.229Z,16.70
2019-06-26T22:17:41.308Z,15.60
2019-06-26T22:20:12.980Z,16.30
2019-06-26T22:22:44.273Z,15.80
2019-06-26T22:25:14.033Z,16.60
2019-06-26T22:27:44.046Z,16.00
2019-06-26T22:30:13.955Z,15.40
2019-06-26T22:32:45.665Z,15.70
2019-06-26T22:35:15.257Z,16.20
2019-06-26T22:37:45.229Z,15.80
2019-06-26T22:40:15.371Z,16.00
2019-06-26T22:42:45.041Z,16.20
2019-06-26T22:45:15.043Z,15.90
2019-06-26T22:47:47.473Z,15.40
2019-06-26T22:50:17.508Z,15.80
2019-06-26T22:52:46.944Z,16.30
2019-06-26T22:55:17.824Z,15.70
2019-06-26T22:57:50.407Z,16.20
2019-06-26T23:00:21.674Z,15.90
2019-06-26T23:02:52.385Z,15.80
2019-06-26T23:05:21.970Z,16.40
2019-06-26T23:07:51.600Z,16.00
2019-06-26T23:17:19.387Z,15.60
2019-06-26T23:19:49.451Z,15.90
2019-06-26T23:25:48.099Z,15.20
2019-06-26T23:29:14.571Z,15.50
2019-06-26T23:31:45.676Z,15.80
2019-06-26T23:34:17.530Z,15.40
2019-06-26T23:36:47.276Z,15.40
2019-06-26T23:39:18.230Z,15.10
2019-06-26T23:41:48.039Z,15.30
2019-06-26T23:44:26.903Z,16.10
2019-06-26T23:46:56.525Z,15.40
2019-06-26T23:49:26.055Z,15.20
2019-06-26T23:51:56.046Z,14.80
2019-06-26T23:54:25.562Z,14.90
2019-06-26T23:56:55.188Z,15.40
2019-06-26T23:59:24.962Z,15.30
